Time;durP1;ratioP1;P1;durP2;ratioP2;P2;SDS_P1;SDS_P2;PMS_P1;PMS_P2;Temp;Humidity;BMP_temperature;BMP_pressure;BME280_temperature;BME280_humidity;BME280_pressure;Samples;Min_cycle;Max_cycle;Signal;HPM_P1;HPM_P2
2022/03/21 00:00:59;;;;;;;12.50;11.40;;;21.40;37.70;;;;;;4977780;28;20166;-58
2022/03/21 00:03:28;;;;;;;11.45;10.45;;;21.40;37.70;;;;;;4989321;28;20051;-58
2022/03/21 00:05:55;;;;;;;12.70;11.50;;;21.40;37.70;;;;;;4975628;28;20141;-58
2022/03/21 00:08:24;;;;;;;13.35;12.10;;;21.40;37.70;;;;;;4976945;28;20048;-58
2022/03/21 00:10:51;;;;;;;12.48;11.35;;;21.40;37.70;;;;;;4978946;28;20042;-58
2022/03/21 00:13:18;;;;;;;12.75;11.57;;;21.40;37.70;;;;;;4977657;28;20121;-59
2022/03/21 00:15:49;;;;;;;12.60;11.40;;;21.40;37.70;;;;;;4976381;28;20050;-57
2022/03/21 00:18:15;;;;;;;13.15;11.98;;;21.40;37.70;;;;;;4991248;28;20079;-57
2022/03/21 00:20:42;;;;;;;12.45;11.30;;;21.30;37.70;;;;;;4975554;28;20479;-58
2022/03/21 00:23:09;;;;;;;12.30;11.20;;;21.30;37.70;;;;;;4978914;28;20053;-58
2022/03/21 00:25:35;;;;;;;12.73;11.52;;;21.30;37.70;;;;;;4978731;28;20054;-57
2022/03/21 00:28:01;;;;;;;12.63;11.52;;;21.30;37.70;;;;;;4976303;28;20074;-58
2022/03/21 00:30:27;;;;;;;12.38;11.25;;;21.30;37.80;;;;;;4976668;28;20086;-60
2022/03/21 00:32:54;;;;;;;12.73;11.52;;;21.30;37.70;;;;;;4977035;28;20050;-61
2022/03/21 00:35:20;;;;;;;13.15;11.95;;;21.20;37.70;;;;;;4975418;28;20431;-58
2022/03/21 00:37:46;;;;;;;12.57;11.38;;;21.20;37.60;;;;;;4977525;28;20089;-58
2022/03/21 00:40:14;;;;;;;12.55;11.35;;;21.20;37.70;;;;;;4976180;28;20241;-59
2022/03/21 00:42:42;;;;;;;12.05;10.93;;;21.20;37.70;;;;;;4977468;28;20046;-58
2022/03/21 00:45:12;;;;;;;12.73;11.52;;;21.20;37.70;;;;;;4975320;28;20050;-58
2022/03/21 00:47:39;;;;;;;12.85;11.60;;;21.20;37.70;;;;;;4977217;28;20043;-59
2022/03/21 00:50:09;;;;;;;11.93;10.82;;;21.20;37.70;;;;;;4974280;28;20050;-59
2022/03/21 00:52:45;;;;;;;12.97;11.87;;;21.10;37.70;;;;;;4975812;28;20050;-57
2022/03/21 00:55:11;;;;;;;12.60;11.40;;;21.20;37.70;;;;;;4975500;28;20585;-59
2022/03/21 00:57:40;;;;;;;12.82;11.63;;;21.10;37.70;;;;;;4977143;28;20043;-58
2022/03/21 01:00:08;;;;;;;14.15;12.65;;;21.10;37.70;;;;;;4976572;28;20051;-59
2022/03/21 01:02:35;;;;;;;12.05;10.95;;;21.10;37.70;;;;;;4978106;28;20101;-57
2022/03/21 01:05:01;;;;;;;13.23;12.02;;;21.10;37.70;;;;;;4974213;28;20070;-58
2022/03/21 01:07:26;;;;;;;12.95;11.75;;;21.10;37.70;;;;;;4972560;28;20514;-59
2022/03/21 01:09:52;;;;;;;11.30;10.30;;;21.10;37.80;;;;;;4974970;28;20045;-59
2022/03/21 01:12:17;;;;;;;13.30;12.05;;;21.10;37.80;;;;;;4974368;28;20042;-59
2022/03/21 01:14:43;;;;;;;12.60;11.50;;;21.10;37.80;;;;;;4974331;28;20054;-58
2022/03/21 01:17:08;;;;;;;12.90;11.70;;;21.00;37.80;;;;;;4973107;28;20105;-57
2022/03/21 01:19:34;;;;;;;12.57;11.43;;;21.00;37.80;;;;;;4974268;28;20082;-59
2022/03/21 01:22:00;;;;;;;13.00;11.80;;;21.00;37.80;;;;;;4973928;28;20498;-60
2022/03/21 01:24:25;;;;;;;12.80;11.70;;;21.00;37.80;;;;;;4976995;28;20050;-58
2022/03/21 01:26:51;;;;;;;13.27;12.18;;;21.00;37.80;;;;;;4973526;28;20039;-58
2022/03/21 01:29:17;;;;;;;12.88;11.68;;;21.00;37.90;;;;;;4976753;28;20578;-58
2022/03/21 01:31:42;;;;;;;12.90;11.60;;;21.00;37.90;;;;;;4975723;28;20650;-59
2022/03/21 01:34:08;;;;;;;12.05;10.95;;;21.00;37.80;;;;;;4975388;28;20137;-58
2022/03/21 01:36:34;;;;;;;12.88;11.70;;;20.90;37.80;;;;;;4973439;28;20129;-59
2022/03/21 01:38:59;;;;;;;12.30;11.20;;;20.90;37.80;;;;;;4974927;28;20051;-59
2022/03/21 01:41:25;;;;;;;12.45;11.35;;;20.90;37.80;;;;;;4976693;28;20080;-57
2022/03/21 01:43:57;;;;;;;12.88;11.60;;;20.90;37.80;;;;;;4973741;28;20506;-59
2022/03/21 01:46:24;;;;;;;12.30;11.13;;;20.90;37.80;;;;;;4974971;28;20050;-58
2022/03/21 01:48:50;;;;;;;13.18;11.88;;;20.90;37.80;;;;;;4975203;28;21099;-58
2022/03/21 01:51:15;;;;;;;12.43;11.23;;;20.90;37.80;;;;;;4978143;28;20057;-58
2022/03/21 01:56:27;;;;;;;13.20;11.90;;;20.80;37.70;;;;;;4973908;28;20370;-58
2022/03/21 01:58:53;;;;;;;12.43;11.32;;;20.90;37.80;;;;;;4976465;28;20077;-58
2022/03/21 02:01:19;;;;;;;12.52;11.43;;;20.80;37.70;;;;;;4975968;28;20046;-59
2022/03/21 02:03:45;;;;;;;12.50;11.30;;;20.80;37.70;;;;;;4976995;28;20411;-58
2022/03/21 02:06:11;;;;;;;12.20;11.07;;;20.80;37.70;;;;;;4973757;28;20047;-57
2022/03/21 02:08:37;;;;;;;12.20;11.07;;;20.80;37.60;;;;;;4981155;28;20054;-59
2022/03/21 02:11:03;;;;;;;12.50;11.30;;;20.80;37.60;;;;;;4975189;28;20266;-59
2022/03/21 02:13:29;;;;;;;12.82;11.63;;;20.80;37.60;;;;;;4973156;28;20600;-61
2022/03/21 02:15:54;;;;;;;12.90;11.70;;;20.80;37.60;;;;;;4981774;28;20042;-59
2022/03/21 02:18:22;;;;;;;11.63;10.57;;;20.80;38.30;;;;;;4976677;28;20050;-59
2022/03/21 02:20:49;;;;;;;13.05;11.85;;;20.70;38.30;;;;;;4974594;28;20050;-58
2022/03/21 02:23:29;;;;;;;11.60;10.55;;;20.70;37.60;;;;;;4976374;28;20042;-58
2022/03/21 02:25:56;;;;;;;12.03;10.93;;;20.70;37.50;;;;;;4975231;28;20055;-60
2022/03/21 02:28:24;;;;;;;11.85;10.85;;;20.70;37.50;;;;;;4973197;28;20344;-58
2022/03/21 02:30:50;;;;;;;12.77;11.57;;;20.70;37.50;;;;;;4975580;28;20066;-58
2022/03/21 02:33:17;;;;;;;11.60;10.60;;;20.70;37.60;;;;;;4974945;28;20054;-58
2022/03/21 02:35:48;;;;;;;12.35;11.25;;;20.70;37.50;;;;;;4973306;28;20139;-57
2022/03/21 02:38:15;;;;;;;11.90;10.73;;;20.70;37.50;;;;;;4974760;28;20149;-58
2022/03/21 02:40:41;;;;;;;12.20;11.10;;;20.60;37.40;;;;;;4973253;28;20042;-59
2022/03/21 02:43:06;;;;;;;11.70;10.70;;;20.70;37.50;;;;;;4973069;28;20050;-58
2022/03/21 02:45:32;;;;;;;12.68;11.48;;;20.60;37.40;;;;;;4972091;28;20471;-59
2022/03/21 02:47:58;;;;;;;12.40;11.27;;;20.60;37.40;;;;;;4973278;28;20969;-58
2022/03/21 02:50:39;;;;;;;11.85;10.73;;;20.60;37.40;;;;;;4971104;28;20066;-58
2022/03/21 02:53:05;;;;;;;;;;;20.60;37.40;;;;;;4972683;28;20141;-57
2022/03/21 02:55:32;;;;;;;12.65;11.45;;;20.60;37.30;;;;;;4975171;28;19926;-59
2022/03/21 02:57:58;;;;;;;12.05;10.80;;;20.60;37.50;;;;;;4974086;28;20509;-58
2022/03/21 03:00:23;;;;;;;12.05;11.02;;;20.60;37.50;;;;;;4968979;28;20042;-58
2022/03/21 03:02:49;;;;;;;11.73;10.55;;;20.50;37.40;;;;;;4966643;28;20042;-58
2022/03/21 03:05:14;;;;;;;11.98;10.88;;;20.60;37.50;;;;;;4971626;28;20058;-58
2022/03/21 03:07:40;;;;;;;10.98;10.07;;;20.50;37.40;;;;;;4970524;28;20047;-59
2022/03/21 03:10:06;;;;;;;12.32;11.13;;;20.50;37.40;;;;;;4971186;28;20056;-60
2022/03/21 03:12:31;;;;;;;11.35;10.25;;;20.50;37.30;;;;;;4973586;28;20361;-60
2022/03/21 03:14:57;;;;;;;11.00;10.00;;;20.50;37.30;;;;;;4974125;28;20081;-60
2022/03/21 03:17:23;;;;;;;11.20;10.20;;;20.50;37.30;;;;;;4970692;28;20058;-59
2022/03/21 03:19:48;;;;;;;11.20;10.20;;;20.50;37.30;;;;;;4968499;28;20090;-58
2022/03/21 03:22:16;;;;;;;10.48;9.48;;;20.50;37.40;;;;;;4971172;28;20089;-58
2022/03/21 03:24:42;;;;;;;11.70;10.60;;;20.50;37.30;;;;;;4974529;28;20049;-58
2022/03/21 03:27:07;;;;;;;11.50;10.38;;;20.50;37.30;;;;;;4975279;28;20047;-57
2022/03/21 03:29:33;;;;;;;10.63;9.60;;;20.40;37.20;;;;;;4971553;28;20050;-58
2022/03/21 03:32:03;;;;;;;11.05;10.05;;;20.50;37.20;;;;;;4970537;28;20073;-58
2022/03/21 03:34:33;;;;;;;10.27;9.27;;;20.40;37.20;;;;;;4973029;28;20089;-58
2022/03/21 03:36:59;;;;;;;10.02;9.13;;;20.40;37.20;;;;;;4973371;28;20053;-59
2022/03/21 03:39:26;;;;;;;10.98;9.98;;;20.40;37.20;;;;;;4972925;28;20150;-58
2022/03/21 03:41:51;;;;;;;10.00;9.10;;;20.40;37.20;;;;;;4972422;28;20039;-58
2022/03/21 03:44:18;;;;;;;10.30;9.40;;;20.40;37.10;;;;;;4972137;28;20065;-59
2022/03/21 03:46:44;;;;;;;9.82;9.00;;;20.40;37.10;;;;;;4971007;28;20070;-58
2022/03/21 03:49:10;;;;;;;10.15;9.25;;;20.40;37.10;;;;;;4971150;28;20067;-60
2022/03/21 03:51:36;;;;;;;10.30;9.40;;;20.40;37.10;;;;;;4972447;28;20055;-59
2022/03/21 03:54:01;;;;;;;10.35;9.35;;;20.40;37.10;;;;;;4973078;28;20063;-58
2022/03/21 03:56:27;;;;;;;9.57;8.75;;;20.40;37.10;;;;;;4973459;28;20054;-58
2022/03/21 03:58:53;;;;;;;9.77;8.95;;;20.40;37.00;;;;;;4971617;28;20038;-58
2022/03/21 04:01:18;;;;;;;9.40;8.57;;;20.40;37.10;;;;;;4958495;28;20884;-59
2022/03/21 04:03:47;;;;;;;9.90;8.98;;;20.40;37.00;;;;;;4972358;28;20034;-58
2022/03/21 04:06:18;;;;;;;9.75;8.75;;;20.30;36.90;;;;;;4971813;28;20046;-58
2022/03/21 04:08:45;;;;;;;10.35;9.25;;;20.40;37.00;;;;;;4971846;28;20050;-58
2022/03/21 04:11:11;;;;;;;8.98;8.18;;;20.30;36.90;;;;;;4974811;28;20475;-58
2022/03/21 04:13:37;;;;;;;9.18;8.27;;;20.30;36.90;;;;;;4969626;28;20081;-58
2022/03/21 04:16:03;;;;;;;9.52;8.57;;;20.30;36.90;;;;;;4972342;28;20158;-58
2022/03/21 04:18:29;;;;;;;9.85;8.95;;;20.30;36.90;;;;;;4972291;28;20069;-60
2022/03/21 04:20:55;;;;;;;8.85;7.97;;;20.30;36.90;;;;;;4973871;28;20046;-58
2022/03/21 04:23:20;;;;;;;9.75;8.80;;;20.30;36.80;;;;;;4973177;28;20061;-58
2022/03/21 04:25:47;;;;;;;9.25;8.45;;;20.30;36.80;;;;;;4973041;28;20649;-57
2022/03/21 04:28:17;;;;;;;8.48;7.68;;;20.30;36.80;;;;;;4970882;28;20051;-58
2022/03/21 04:30:42;;;;;;;9.15;8.23;;;20.30;36.80;;;;;;4971999;28;20054;-58
2022/03/21 04:33:10;;;;;;;9.18;8.38;;;20.30;36.80;;;;;;4972095;28;21009;-58
2022/03/21 04:35:36;;;;;;;8.60;7.80;;;20.30;36.90;;;;;;4972922;28;20050;-59
2022/03/21 04:38:02;;;;;;;9.23;8.35;;;20.20;36.70;;;;;;4975053;28;20065;-58
2022/03/21 04:40:28;;;;;;;8.63;7.85;;;20.20;36.70;;;;;;4974217;28;20126;-58
2022/03/21 04:42:53;;;;;;;8.35;7.65;;;20.20;36.70;;;;;;4977205;28;20049;-58
2022/03/21 04:45:19;;;;;;;8.38;7.57;;;20.20;36.60;;;;;;4976210;28;20054;-57
2022/03/21 04:47:45;;;;;;;7.78;7.07;;;20.20;36.60;;;;;;4974855;28;20129;-59
2022/03/21 04:50:11;;;;;;;8.82;8.02;;;20.20;36.70;;;;;;4959813;28;20569;-58
2022/03/21 04:52:37;;;;;;;9.10;8.20;;;20.20;36.60;;;;;;4974120;28;20061;-59
2022/03/21 04:55:03;;;;;;;7.72;6.90;;;20.20;36.60;;;;;;4975425;28;20779;-58
2022/03/21 04:57:30;;;;;;;8.18;7.47;;;20.20;36.60;;;;;;4975087;28;20031;-58
2022/03/21 04:59:56;;;;;;;8.27;7.50;;;20.20;36.60;;;;;;4977703;28;20153;-58
2022/03/21 05:02:21;;;;;;;7.93;7.22;;;20.20;36.60;;;;;;4970103;28;20051;-58
2022/03/21 05:04:47;;;;;;;8.10;7.40;;;20.20;36.50;;;;;;4975051;28;20674;-59
2022/03/21 05:07:16;;;;;;;7.50;6.90;;;20.20;36.50;;;;;;4972387;28;20070;-58
2022/03/21 05:09:43;;;;;;;8.10;6.82;;;20.10;36.40;;;;;;4977016;28;20055;-59
2022/03/21 05:12:12;;;;;;;7.97;7.25;;;20.10;36.40;;;;;;4988429;28;20536;-60
2022/03/21 05:14:39;;;;;;;7.63;6.90;;;20.10;36.40;;;;;;4973756;28;20062;-58
2022/03/21 05:17:05;;;;;;;7.50;6.82;;;20.10;36.40;;;;;;4974355;28;20505;-57
2022/03/21 05:19:35;;;;;;;6.75;6.15;;;20.10;36.40;;;;;;4976037;28;20097;-61
2022/03/21 05:22:04;;;;;;;6.78;6.18;;;20.10;36.40;;;;;;4974687;28;20034;-57
2022/03/21 05:32:43;;;;;;;6.82;6.18;;;20.10;36.50;;;;;;4976652;28;20058;-57
2022/03/21 05:38:09;;;;;;;7.18;6.57;;;20.00;36.30;;;;;;4954825;28;20054;-57
2022/03/21 05:40:35;;;;;;;6.88;6.28;;;20.00;36.40;;;;;;4969595;28;20055;-58
2022/03/21 05:43:02;;;;;;;6.90;6.00;;;20.00;36.40;;;;;;4975426;28;20554;-59
2022/03/21 05:45:28;;;;;;;8.40;5.85;;;20.00;36.40;;;;;;4974945;28;20686;-58
2022/03/21 05:50:38;;;;;;;6.80;6.13;;;20.00;36.60;;;;;;4976401;28;20085;-57
2022/03/21 05:53:07;;;;;;;6.80;6.10;;;20.00;36.50;;;;;;4972707;28;20062;-58
2022/03/21 05:55:33;;;;;;;6.68;5.63;;;20.00;36.60;;;;;;4974404;28;20047;-57
2022/03/21 05:57:59;;;;;;;6.63;5.70;;;20.00;36.60;;;;;;4974617;28;20105;-58
2022/03/21 06:00:26;;;;;;;7.07;5.45;;;20.00;36.60;;;;;;4974250;28;20144;-58
2022/03/21 06:02:53;;;;;;;6.60;5.95;;;20.00;36.70;;;;;;4974550;28;20161;-58
2022/03/21 06:05:20;;;;;;;6.25;5.65;;;20.00;36.60;;;;;;4974313;28;20129;-58
2022/03/21 06:07:46;;;;;;;6.55;5.68;;;20.00;36.70;;;;;;4974121;28;20117;-58
2022/03/21 06:10:13;;;;;;;5.72;5.22;;;20.00;36.70;;;;;;4980430;28;20050;-58
2022/03/21 06:12:40;;;;;;;5.43;4.93;;;20.00;36.70;;;;;;4973572;28;20470;-58
2022/03/21 06:15:06;;;;;;;5.68;5.07;;;20.00;37.40;;;;;;4974828;28;20054;-59
2022/03/21 06:17:42;;;;;;;6.05;5.00;;;20.00;36.70;;;;;;4972688;28;20043;-59
2022/03/21 06:20:13;;;;;;;6.20;5.57;;;20.00;36.70;;;;;;4975373;28;20137;-58
2022/03/21 06:22:39;;;;;;;5.95;5.35;;;20.00;36.70;;;;;;4988146;28;20057;-58
2022/03/21 06:25:06;;;;;;;6.45;4.97;;;20.00;36.70;;;;;;4976397;28;20126;-59
2022/03/21 06:27:37;;;;;;;5.20;4.63;;;20.00;36.70;;;;;;4974051;28;20570;-59
2022/03/21 06:30:07;;;;;;;5.03;4.53;;;20.00;36.60;;;;;;4973357;28;20049;-57
2022/03/21 06:32:34;;;;;;;5.10;4.25;;;20.00;36.70;;;;;;4975647;28;20065;-58
2022/03/21 06:34:59;;;;;;;5.30;4.80;;;20.00;36.60;;;;;;4973693;28;20043;-58
2022/03/21 06:37:25;;;;;;;5.07;4.57;;;20.00;36.70;;;;;;4975718;28;20054;-58
2022/03/21 06:39:51;;;;;;;4.93;4.40;;;20.00;36.60;;;;;;4974542;28;20043;-58
2022/03/21 06:42:17;;;;;;;4.65;4.20;;;20.00;36.60;;;;;;4973707;28;21020;-59
2022/03/21 06:44:43;;;;;;;5.45;4.03;;;20.00;36.60;;;;;;4974014;28;20068;-58
2022/03/21 06:47:10;;;;;;;4.70;4.10;;;20.00;36.70;;;;;;4973275;28;20046;-58
2022/03/21 06:49:36;;;;;;;4.15;3.75;;;20.00;36.70;;;;;;4974008;28;20046;-57
2022/03/21 06:52:02;;;;;;;4.28;3.90;;;20.10;36.70;;;;;;4973015;28;20054;-59
2022/03/21 06:54:29;;;;;;;5.07;4.10;;;20.10;36.80;;;;;;4971296;28;20100;-59
2022/03/21 06:56:55;;;;;;;4.45;4.05;;;20.10;36.80;;;;;;4973619;28;20054;-58
2022/03/21 06:59:22;;;;;;;4.20;3.80;;;20.10;36.80;;;;;;4977080;28;20059;-58
2022/03/21 07:01:47;;;;;;;4.63;3.90;;;20.10;36.80;;;;;;4972980;28;20100;-60
2022/03/21 07:04:13;;;;;;;4.07;3.78;;;20.10;36.70;;;;;;4978076;28;20038;-60
2022/03/21 07:06:38;;;;;;;4.28;3.97;;;20.10;36.70;;;;;;4972836;28;20081;-60
2022/03/21 07:09:04;;;;;;;4.00;3.70;;;20.20;36.80;;;;;;4956389;28;20716;-59
2022/03/21 07:11:29;;;;;;;4.90;4.28;;;20.20;36.80;;;;;;4974711;28;20078;-59
2022/03/21 07:13:55;;;;;;;4.45;4.10;;;20.20;36.90;;;;;;4974588;28;20125;-58
2022/03/21 07:16:21;;;;;;;6.10;3.50;;;20.20;36.80;;;;;;4974017;28;20053;-58
2022/03/21 07:18:48;;;;;;;4.22;3.90;;;20.20;36.90;;;;;;4973602;28;20042;-59
2022/03/21 07:21:15;;;;;;;4.50;3.70;;;20.20;37.00;;;;;;4973673;28;20109;-58
2022/03/21 07:23:41;;;;;;;3.80;3.42;;;20.20;37.00;;;;;;4973332;28;20042;-59
2022/03/21 07:26:06;;;;;;;6.47;3.55;;;20.20;37.10;;;;;;4973904;28;20053;-58
2022/03/21 07:28:32;;;;;;;3.78;3.38;;;20.20;37.20;;;;;;4972652;28;20105;-59
2022/03/21 07:30:57;;;;;;;3.90;3.50;;;20.20;37.20;;;;;;4971751;28;20047;-58
2022/03/21 07:33:24;;;;;;;4.38;3.80;;;20.20;37.20;;;;;;4973130;28;20065;-58
2022/03/21 07:35:50;;;;;;;5.47;3.80;;;20.20;37.20;;;;;;4977498;28;20051;-58
2022/03/21 07:38:19;;;;;;;4.15;3.70;;;20.20;37.30;;;;;;4971879;28;20077;-59
2022/03/21 07:40:46;;;;;;;7.43;3.90;;;20.20;37.40;;;;;;4972821;28;20047;-58
2022/03/21 07:43:13;;;;;;;5.18;3.50;;;20.20;37.40;;;;;;4973478;28;20106;-59
2022/03/21 07:48:23;;;;;;;3.38;2.60;;;20.30;37.60;;;;;;4988170;28;20050;-58
2022/03/21 07:50:50;;;;;;;4.03;3.13;;;20.30;37.70;;;;;;4972465;28;20054;-59
2022/03/21 07:53:16;;;;;;;3.72;3.20;;;20.30;37.90;;;;;;4974241;28;20193;-59
2022/03/21 07:55:41;;;;;;;3.35;3.05;;;20.30;38.00;;;;;;4973508;28;20134;-58
2022/03/21 07:58:07;;;;;;;3.63;3.10;;;20.30;38.10;;;;;;4971183;28;20083;-58
2022/03/21 08:00:33;;;;;;;3.47;3.15;;;20.40;38.10;;;;;;4972213;28;20403;-58
2022/03/21 08:02:59;;;;;;;3.13;2.85;;;20.40;38.20;;;;;;4971487;28;20070;-58
2022/03/21 08:05:27;;;;;;;4.13;2.90;;;20.40;38.20;;;;;;4971208;28;20078;-58
2022/03/21 08:07:52;;;;;;;4.47;3.17;;;20.40;38.10;;;;;;4974393;28;20221;-59
2022/03/21 08:10:21;;;;;;;4.07;3.20;;;20.40;38.20;;;;;;4973172;28;20134;-59
2022/03/21 08:12:48;;;;;;;3.55;3.22;;;20.40;38.20;;;;;;4972956;28;20632;-59
2022/03/21 08:15:14;;;;;;;4.65;3.13;;;20.40;38.20;;;;;;4971428;28;20050;-59
2022/03/21 08:17:57;;;;;;;4.18;3.03;;;20.40;38.40;;;;;;4990099;28;20126;-64
2022/03/21 08:20:26;;;;;;;4.95;3.65;;;20.50;38.70;;;;;;4977943;28;20065;-59
2022/03/21 08:22:52;;;;;;;5.43;3.60;;;20.50;38.70;;;;;;4975994;28;20043;-54
2022/03/21 08:25:20;;;;;;;3.15;2.85;;;20.50;38.80;;;;;;4975738;28;20061;-59
2022/03/21 08:27:46;;;;;;;5.32;3.35;;;20.50;38.70;;;;;;4977167;28;20058;-58
2022/03/21 08:30:15;;;;;;;3.58;3.15;;;20.50;38.70;;;;;;4975687;28;20074;-57
2022/03/21 08:32:42;;;;;;;5.85;3.33;;;20.50;38.70;;;;;;4977514;28;20442;-58
2022/03/21 08:35:08;;;;;;;5.15;3.20;;;20.50;38.70;;;;;;4976202;28;20061;-57
2022/03/21 08:37:33;;;;;;;4.60;3.47;;;20.50;38.80;;;;;;4975250;28;20043;-59
2022/03/21 08:39:59;;;;;;;5.07;3.35;;;20.50;38.90;;;;;;4974035;28;20050;-57
2022/03/21 08:42:24;;;;;;;5.45;3.60;;;20.50;39.00;;;;;;4975737;28;20050;-57
2022/03/21 08:44:50;;;;;;;4.68;3.50;;;20.50;39.00;;;;;;4975873;28;20049;-57
2022/03/21 08:47:16;;;;;;;4.57;3.47;;;20.50;39.10;;;;;;4975674;28;20064;-58
2022/03/21 08:49:41;;;;;;;4.05;3.30;;;20.50;39.20;;;;;;4977702;28;20055;-57
2022/03/21 08:52:07;;;;;;;5.32;3.10;;;20.50;39.30;;;;;;4975087;28;20307;-57
2022/03/21 08:54:33;;;;;;;4.03;3.30;;;20.60;39.50;;;;;;4976334;28;20829;-58
2022/03/21 08:56:58;;;;;;;4.55;3.17;;;20.60;39.50;;;;;;4977624;28;20061;-58
2022/03/21 08:59:24;;;;;;;5.70;3.60;;;20.60;39.60;;;;;;4976601;28;20581;-58
2022/03/21 09:01:51;;;;;;;5.75;3.50;;;20.60;39.70;;;;;;4974232;28;20880;-57
2022/03/21 09:04:16;;;;;;;4.15;3.17;;;20.60;39.70;;;;;;4975151;28;20070;-58
2022/03/21 09:06:42;;;;;;;4.43;3.20;;;20.60;39.80;;;;;;4974832;28;20790;-57
2022/03/21 09:09:08;;;;;;;4.25;3.08;;;20.60;39.90;;;;;;4975232;28;20057;-57
2022/03/21 09:11:34;;;;;;;5.28;3.65;;;20.60;40.00;;;;;;4973995;28;20088;-58
2022/03/21 09:14:00;;;;;;;6.00;3.97;;;20.60;40.20;;;;;;4974970;28;20082;-58
2022/03/21 09:16:25;;;;;;;6.43;3.42;;;20.70;40.30;;;;;;4975423;28;20127;-58
2022/03/21 09:18:51;;;;;;;3.45;3.15;;;20.70;40.40;;;;;;4975110;28;20046;-59
2022/03/21 09:21:16;;;;;;;5.88;3.65;;;20.70;40.40;;;;;;4973808;28;20053;-59
2022/03/21 09:23:42;;;;;;;6.82;3.58;;;20.70;40.50;;;;;;4973300;28;20047;-59
2022/03/21 09:26:11;;;;;;;5.32;3.60;;;20.70;40.50;;;;;;4975406;28;20054;-58
2022/03/21 09:28:40;;;;;;;3.30;2.97;;;20.70;40.70;;;;;;4975120;28;20130;-59
2022/03/21 09:31:08;;;;;;;4.22;3.30;;;20.70;40.60;;;;;;4968026;28;20050;-59
2022/03/21 09:33:36;;;;;;;4.65;3.33;;;20.80;40.90;;;;;;4978642;28;20158;-57
2022/03/21 09:36:04;;;;;;;4.13;3.45;;;20.80;40.80;;;;;;4973596;28;20050;-59
2022/03/21 09:38:30;;;;;;;5.32;4.00;;;20.80;40.80;;;;;;4972439;28;20045;-57
2022/03/21 09:40:57;;;;;;;4.57;3.50;;;20.80;40.80;;;;;;4974188;28;20139;-57
2022/03/21 09:43:24;;;;;;;5.20;3.55;;;20.80;40.80;;;;;;4975080;28;20061;-58
2022/03/21 09:45:51;;;;;;;4.15;3.55;;;20.80;40.80;;;;;;4973950;28;20053;-58
2022/03/21 09:48:20;;;;;;;4.15;3.47;;;20.80;40.80;;;;;;4972708;28;20035;-58
2022/03/21 09:50:47;;;;;;;4.63;3.40;;;20.80;40.80;;;;;;4974599;28;20051;-57
2022/03/21 09:53:15;;;;;;;4.68;3.38;;;20.80;40.80;;;;;;4971427;28;20122;-58
2022/03/21 09:55:43;;;;;;;4.43;3.58;;;20.80;40.90;;;;;;4974358;28;20122;-59
2022/03/21 09:58:10;;;;;;;4.53;3.50;;;20.80;40.90;;;;;;4988881;28;20984;-58
2022/03/21 10:00:38;;;;;;;3.97;3.53;;;20.90;40.80;;;;;;4976776;28;20050;-57
2022/03/21 10:03:04;;;;;;;6.82;3.78;;;20.80;40.70;;;;;;4973994;28;20042;-58
2022/03/21 10:05:30;;;;;;;5.10;3.60;;;20.80;40.70;;;;;;4974597;28;20090;-57
2022/03/21 10:08:25;;;;;;;4.28;3.55;;;20.80;40.60;;;;;;4972504;28;20053;-57
2022/03/21 10:11:01;;;;;;;4.93;3.40;;;20.90;40.80;;;;;;4961180;28;20132;-58
2022/03/21 10:13:38;;;;;;;4.30;3.40;;;20.90;40.80;;;;;;4974829;28;20047;-57
2022/03/21 10:16:08;;;;;;;4.88;3.67;;;20.90;40.80;;;;;;4958820;28;20221;-57
2022/03/21 10:18:34;;;;;;;4.00;3.58;;;20.90;40.70;;;;;;4973915;28;20066;-58
2022/03/21 10:21:15;;;;;;;3.60;3.13;;;20.90;40.70;;;;;;4974560;28;20039;-58
2022/03/21 10:23:44;;;;;;;4.70;3.50;;;20.90;40.70;;;;;;4972643;28;20054;-57
2022/03/21 10:26:31;;;;;;;4.22;3.45;;;20.90;40.60;;;;;;4975249;28;20092;-58
2022/03/21 10:28:58;;;;;;;4.68;3.60;;;20.90;40.60;;;;;;4973282;28;20050;-58
2022/03/21 10:31:53;;;;;;;4.00;3.60;;;20.90;40.50;;;;;;4988558;28;20145;-57
2022/03/21 10:34:21;;;;;;;4.70;3.72;;;20.90;40.40;;;;;;4960134;28;20399;-58
2022/03/21 10:37:08;;;;;;;4.72;3.65;;;20.90;40.40;;;;;;4972166;28;20054;-58
2022/03/21 10:39:39;;;;;;;4.80;3.70;;;20.90;40.40;;;;;;4974855;28;20100;-58
2022/03/21 10:42:10;;;;;;;4.03;3.10;;;21.00;40.40;;;;;;4973397;28;20502;-57
2022/03/21 10:44:37;;;;;;;3.90;3.50;;;21.00;40.40;;;;;;4973592;28;20051;-57
2022/03/21 10:47:05;;;;;;;3.85;3.45;;;21.00;40.30;;;;;;4975764;28;20562;-58
2022/03/21 10:49:43;;;;;;;4.07;3.58;;;21.00;40.20;;;;;;4974580;28;20050;-58
2022/03/21 10:52:19;;;;;;;5.30;3.90;;;21.00;40.20;;;;;;4973414;28;20065;-57
2022/03/21 10:54:50;;;;;;;5.32;3.50;;;21.00;40.10;;;;;;4970744;28;20054;-58
2022/03/21 10:57:27;;;;;;;5.32;3.95;;;21.00;40.10;;;;;;4974849;28;20145;-57
2022/03/21 11:00:12;;;;;;;4.13;3.40;;;21.00;40.10;;;;;;4972249;28;20038;-58
2022/03/21 11:02:59;;;;;;;3.83;3.53;;;21.00;40.00;;;;;;4974533;28;20577;-57
2022/03/21 11:05:26;;;;;;;4.80;3.90;;;21.00;39.90;;;;;;4974465;28;20043;-59
2022/03/21 11:07:55;;;;;;;5.30;3.92;;;21.00;39.90;;;;;;4974160;28;20070;-57
2022/03/21 11:10:23;;;;;;;4.40;4.00;;;21.00;39.90;;;;;;4973793;28;20042;-57
2022/03/21 11:12:48;;;;;;;4.90;4.07;;;21.00;39.90;;;;;;4973100;28;20046;-57
2022/03/21 11:15:15;;;;;;;4.65;4.25;;;21.00;39.90;;;;;;4978999;28;20085;-57
2022/03/21 11:17:42;;;;;;;5.82;4.40;;;21.00;39.90;;;;;;4975107;28;20082;-57
2022/03/21 11:20:10;;;;;;;4.63;4.22;;;21.00;39.90;;;;;;4976426;28;20050;-57
2022/03/21 11:22:37;;;;;;;5.55;4.30;;;21.00;40.00;;;;;;4974207;28;20085;-57
2022/03/21 11:25:06;;;;;;;5.60;4.95;;;21.00;40.00;;;;;;4972610;28;20082;-58
2022/03/21 11:27:43;;;;;;;5.95;3.97;;;21.00;40.00;;;;;;4975454;28;20039;-58
2022/03/21 11:30:26;;;;;;;4.82;3.92;;;21.00;40.10;;;;;;4973017;28;20050;-57
2022/03/21 11:33:19;;;;;;;4.55;4.00;;;21.00;40.10;;;;;;4974965;28;20060;-58
2022/03/21 11:35:51;;;;;;;5.50;3.97;;;21.00;40.20;;;;;;4972340;28;20324;-58
2022/03/21 11:38:46;;;;;;;5.72;4.25;;;21.00;40.20;;;;;;4973273;28;20506;-59
2022/03/21 11:41:15;;;;;;;4.70;4.30;;;21.00;40.10;;;;;;4972401;28;20045;-57
2022/03/21 11:43:45;;;;;;;5.88;4.30;;;21.00;40.10;;;;;;4973350;28;20108;-57
2022/03/21 11:46:37;;;;;;;5.00;3.83;;;21.00;40.10;;;;;;4973843;28;20054;-59
2022/03/21 11:49:18;;;;;;;4.85;4.00;;;21.00;40.30;;;;;;4970876;28;20054;-59
2022/03/21 11:51:44;;;;;;;;;;;21.00;40.40;;;;;;4975161;28;20781;-58
2022/03/21 11:54:30;;;;;;;7.45;3.95;;;21.00;40.60;;;;;;4973680;28;20635;-58
2022/03/21 11:57:23;;;;;;;5.20;3.60;;;21.00;40.60;;;;;;4976636;28;20059;-58
2022/03/21 11:59:51;;;;;;;5.45;3.85;;;21.00;40.50;;;;;;4963674;28;20061;-59
2022/03/21 12:02:17;;;;;;;4.47;4.07;;;21.00;40.40;;;;;;4977424;28;20368;-58
2022/03/21 12:04:56;;;;;;;6.05;3.75;;;21.00;40.50;;;;;;4978406;28;20563;-58
2022/03/21 12:07:21;;;;;;;4.60;4.20;;;21.00;40.50;;;;;;4975948;28;20050;-58
2022/03/21 12:09:49;;;;;;;4.40;3.88;;;21.00;40.50;;;;;;4975668;28;20097;-58
2022/03/21 12:12:19;;;;;;;4.55;3.92;;;21.00;40.50;;;;;;4976855;28;20530;-58
2022/03/21 12:14:54;;;;;;;5.22;4.38;;;21.00;40.50;;;;;;4977388;28;20050;-58
2022/03/21 12:17:23;;;;;;;7.72;4.18;;;21.00;40.40;;;;;;4978304;28;20066;-59
2022/03/21 12:19:51;;;;;;;6.13;4.28;;;21.00;40.40;;;;;;4978049;28;20154;-58
2022/03/21 12:22:29;;;;;;;7.53;4.18;;;21.00;40.50;;;;;;4974478;28;20058;-58
2022/03/21 12:24:56;;;;;;;7.13;4.15;;;21.00;40.50;;;;;;4991720;28;20132;-57
2022/03/21 12:27:39;;;;;;;7.90;3.65;;;21.00;40.50;;;;;;4974934;28;20051;-58
2022/03/21 12:32:49;;;;;;;6.63;3.70;;;21.10;40.80;;;;;;4971376;28;20046;-60
2022/03/21 12:35:35;;;;;;;5.57;4.10;;;21.00;40.60;;;;;;4972678;28;20823;-59
2022/03/21 12:38:02;;;;;;;5.00;3.83;;;21.10;40.70;;;;;;4971079;28;20039;-58
2022/03/21 12:40:27;;;;;;;6.80;3.85;;;21.10;40.70;;;;;;4972832;28;20050;-58
2022/03/21 12:42:55;;;;;;;3.50;3.20;;;21.10;40.70;;;;;;4976211;28;20640;-59
2022/03/21 12:45:21;;;;;;;5.68;4.15;;;21.10;40.80;;;;;;4975630;28;21944;-58
2022/03/21 12:47:48;;;;;;;4.25;3.85;;;21.10;40.80;;;;;;4973354;28;20972;-59
2022/03/21 12:50:24;;;;;;;4.95;3.67;;;21.10;40.70;;;;;;4979310;28;20106;-59
2022/03/21 12:52:55;;;;;;;4.18;3.63;;;21.10;40.70;;;;;;4976376;28;20050;-58
2022/03/21 12:55:21;;;;;;;5.45;3.90;;;21.10;40.70;;;;;;4976583;28;20058;-58
2022/03/21 12:58:01;;;;;;;5.38;3.97;;;21.10;40.70;;;;;;4975134;28;20097;-58
2022/03/21 13:00:31;;;;;;;4.37;3.77;;;21.10;40.70;;;;;;4975346;28;20050;-58
2022/03/21 13:03:02;;;;;;;5.03;4.07;;;21.10;40.70;;;;;;4976165;28;20304;-59
2022/03/21 13:11:03;;;;;;;4.35;3.95;;;21.10;40.60;;;;;;4973201;28;20058;-59
2022/03/21 13:13:42;;;;;;;5.03;3.95;;;21.10;40.60;;;;;;4975291;28;20608;-59